createdAt,value
2022-07-27T00:01:09.654Z,99.90
2022-07-27T00:03:38.566Z,99.90
2022-07-27T00:06:06.935Z,99.90
2022-07-27T00:08:35.011Z,99.90
2022-07-27T00:11:03.420Z,99.90
2022-07-27T00:13:33.226Z,99.90
2022-07-27T00:16:01.221Z,99.90
2022-07-27T00:18:29.226Z,99.90
2022-07-27T00:20:57.130Z,99.90
2022-07-27T00:23:25.003Z,99.90
2022-07-27T00:25:52.915Z,99.90
2022-07-27T00:28:20.823Z,99.90
2022-07-27T00:30:50.212Z,99.90
2022-07-27T00:33:18.169Z,99.90
2022-07-27T00:35:46.438Z,99.90
2022-07-27T00:38:14.358Z,99.90
2022-07-27T00:40:42.255Z,99.90
2022-07-27T00:43:10.240Z,99.90
2022-07-27T00:45:38.223Z,99.90
2022-07-27T00:48:07.785Z,99.90
2022-07-27T00:50:36.414Z,99.90
2022-07-27T00:53:05.876Z,99.90
2022-07-27T00:55:34.227Z,99.90
2022-07-27T00:58:03.655Z,99.90
2022-07-27T01:00:31.813Z,99.90
2022-07-27T01:02:59.772Z,99.90
2022-07-27T01:05:36.703Z,99.90
2022-07-27T01:08:07.771Z,99.90
2022-07-27T01:10:36.464Z,99.90
2022-07-27T01:13:04.405Z,99.90
2022-07-27T01:15:35.227Z,99.90
2022-07-27T01:18:06.026Z,99.90
2022-07-27T01:20:37.420Z,99.90
2022-07-27T01:23:06.655Z,99.90
2022-07-27T01:25:34.903Z,99.90
2022-07-27T01:28:02.811Z,99.90
2022-07-27T01:30:31.198Z,99.90
2022-07-27T01:33:02.884Z,99.90
2022-07-27T01:35:31.057Z,99.90
2022-07-27T01:37:59.348Z,99.90
2022-07-27T01:40:28.597Z,99.90
2022-07-27T01:42:56.482Z,99.90
2022-07-27T01:45:24.386Z,99.90
2022-07-27T01:47:52.286Z,99.90
2022-07-27T01:50:20.143Z,99.90
2022-07-27T01:52:48.688Z,99.90
2022-07-27T01:55:16.623Z,99.90
2022-07-27T01:57:45.893Z,99.90
2022-07-27T02:00:14.959Z,99.90
2022-07-27T02:02:43.165Z,99.90
2022-07-27T02:05:12.441Z,99.90
2022-07-27T02:07:40.830Z,99.90
2022-07-27T02:10:10.237Z,99.90
2022-07-27T02:12:37.904Z,99.90
2022-07-27T02:15:13.414Z,99.90
2022-07-27T02:17:44.873Z,99.90
2022-07-27T02:20:14.760Z,99.90
2022-07-27T02:22:42.892Z,99.90
2022-07-27T02:25:11.745Z,99.90
2022-07-27T02:27:40.196Z,99.90
2022-07-27T02:30:11.131Z,99.90
2022-07-27T02:32:39.153Z,99.90
2022-07-27T02:35:18.596Z,99.90
2022-07-27T02:37:48.158Z,99.90
2022-07-27T02:40:17.285Z,99.90
2022-07-27T02:42:45.827Z,99.90
2022-07-27T02:45:15.188Z,99.90
2022-07-27T02:47:43.400Z,99.90
2022-07-27T02:50:11.658Z,99.90
2022-07-27T02:52:39.925Z,99.90
2022-07-27T02:55:09.429Z,99.90
2022-07-27T02:57:40.749Z,99.90
2022-07-27T03:00:11.392Z,99.90
2022-07-27T03:02:40.915Z,99.90
2022-07-27T03:05:10.655Z,99.90
2022-07-27T03:07:38.632Z,99.90
2022-07-27T03:10:07.706Z,99.90
2022-07-27T03:12:35.643Z,99.90
2022-07-27T03:15:03.549Z,99.90
2022-07-27T03:17:32.798Z,99.90
2022-07-27T03:20:02.018Z,99.90
2022-07-27T03:22:32.487Z,99.90
2022-07-27T03:25:00.513Z,99.90
2022-07-27T03:27:29.242Z,99.90
2022-07-27T03:29:57.340Z,99.90
2022-07-27T03:32:25.369Z,99.90
2022-07-27T03:34:53.476Z,99.90
2022-07-27T03:37:22.734Z,99.90
2022-07-27T03:39:50.649Z,99.90
2022-07-27T03:42:18.560Z,99.90
2022-07-27T03:44:46.488Z,99.90
2022-07-27T03:47:14.409Z,99.90
2022-07-27T03:49:42.287Z,99.90
2022-07-27T03:52:13.069Z,99.90
2022-07-27T03:54:46.589Z,99.90
2022-07-27T03:57:14.914Z,99.90
2022-07-27T03:59:42.793Z,99.90
2022-07-27T04:02:10.815Z,99.90
2022-07-27T04:04:38.719Z,99.90
2022-07-27T04:07:06.724Z,99.90
2022-07-27T04:09:36.127Z,99.90
2022-07-27T04:12:05.938Z,99.90
2022-07-27T04:14:34.189Z,99.90
2022-07-27T04:17:02.226Z,99.90
2022-07-27T04:19:30.205Z,99.90
2022-07-27T04:21:58.360Z,99.90
2022-07-27T04:24:26.334Z,99.90
2022-07-27T04:26:54.246Z,99.90
2022-07-27T04:29:23.939Z,99.90
2022-07-27T04:31:52.252Z,99.90
2022-07-27T04:34:21.598Z,99.90
2022-07-27T04:36:50.814Z,99.90
2022-07-27T04:39:18.723Z,99.90
2022-07-27T04:41:47.073Z,99.90
2022-07-27T04:44:14.975Z,99.90
2022-07-27T04:46:44.294Z,99.90
2022-07-27T04:49:12.481Z,99.90
2022-07-27T04:51:44.789Z,99.90
2022-07-27T04:54:13.331Z,99.90
2022-07-27T04:56:41.207Z,99.90
2022-07-27T04:59:09.400Z,99.90
2022-07-27T05:01:37.670Z,99.90
2022-07-27T05:04:07.054Z,99.90
2022-07-27T05:06:35.027Z,99.90
2022-07-27T05:09:02.976Z,99.90
2022-07-27T05:11:30.937Z,99.90
2022-07-27T05:13:58.917Z,99.90
2022-07-27T05:16:29.086Z,99.90
2022-07-27T05:18:57.448Z,99.90
2022-07-27T05:21:27.356Z,99.90
2022-07-27T05:23:55.956Z,99.90
2022-07-27T05:26:23.910Z,99.90
2022-07-27T05:28:52.089Z,99.90
2022-07-27T05:31:20.014Z,99.90
2022-07-27T05:33:49.276Z,99.90
2022-07-27T05:36:18.471Z,99.90
2022-07-27T05:38:47.742Z,99.90
2022-07-27T05:41:16.058Z,99.90
2022-07-27T05:43:44.610Z,99.90
2022-07-27T05:46:12.582Z,99.90
2022-07-27T05:48:40.617Z,99.90
2022-07-27T05:51:09.406Z,99.90
2022-07-27T05:53:37.354Z,99.90
2022-07-27T05:56:08.011Z,99.90
2022-07-27T05:58:36.197Z,99.90
2022-07-27T06:01:04.523Z,99.90
2022-07-27T06:03:32.608Z,99.90
2022-07-27T06:06:18.695Z,99.90
2022-07-27T06:08:46.581Z,99.90
2022-07-27T06:11:15.823Z,99.90
2022-07-27T06:13:43.708Z,99.90
2022-07-27T06:16:12.066Z,99.90
2022-07-27T06:18:40.265Z,99.90
2022-07-27T06:21:08.111Z,99.90
2022-07-27T06:23:36.055Z,99.90
2022-07-27T06:26:03.938Z,99.90
2022-07-27T06:28:33.340Z,99.90
2022-07-27T06:31:01.402Z,99.90
2022-07-27T06:33:30.782Z,99.90
2022-07-27T06:36:01.523Z,99.90
2022-07-27T06:38:30.198Z,99.90
2022-07-27T06:40:58.552Z,99.90
2022-07-27T06:43:28.136Z,99.90
2022-07-27T06:45:59.344Z,99.90
2022-07-27T06:48:27.519Z,99.90
2022-07-27T06:50:55.788Z,99.90
2022-07-27T06:53:24.384Z,99.90
2022-07-27T06:55:52.396Z,99.90
2022-07-27T06:58:22.691Z,99.90
2022-07-27T07:00:50.653Z,99.90
2022-07-27T07:03:20.017Z,99.90
2022-07-27T07:05:48.454Z,99.90
2022-07-27T07:08:16.445Z,99.90
2022-07-27T07:10:45.855Z,99.90
2022-07-27T07:13:14.265Z,99.40
2022-07-27T07:15:43.634Z,97.90
2022-07-27T07:18:13.580Z,97.70
2022-07-27T07:20:43.337Z,95.70
2022-07-27T07:23:12.128Z,94.90
2022-07-27T07:25:40.781Z,90.20
2022-07-27T07:28:09.050Z,84.60
2022-07-27T07:30:37.416Z,75.40
2022-07-27T07:33:05.726Z,78.10
2022-07-27T07:35:33.954Z,77.80
2022-07-27T07:38:03.431Z,77.90
2022-07-27T07:40:46.759Z,79.20
2022-07-27T07:43:15.168Z,74.20
2022-07-27T07:45:50.014Z,68.30
2022-07-27T07:48:19.670Z,65.10
2022-07-27T07:50:51.914Z,60.90
2022-07-27T07:53:23.575Z,64.60
2022-07-27T07:55:51.875Z,67.00
2022-07-27T07:58:20.187Z,67.40
2022-07-27T08:00:48.228Z,68.50
2022-07-27T08:03:16.312Z,70.70
2022-07-27T08:05:44.556Z,73.90
2022-07-27T08:08:12.521Z,72.40
2022-07-27T08:10:41.759Z,72.50
2022-07-27T08:13:09.682Z,68.50
2022-07-27T08:15:37.640Z,67.30
2022-07-27T08:18:06.624Z,67.20
2022-07-27T08:20:35.221Z,63.90
2022-07-27T08:23:03.783Z,64.30
2022-07-27T08:25:32.128Z,62.40
2022-07-27T08:28:01.975Z,63.50
2022-07-27T08:30:32.386Z,62.70
2022-07-27T08:33:02.980Z,61.20
2022-07-27T08:35:31.987Z,58.20
2022-07-27T08:38:00.484Z,58.10
2022-07-27T08:40:39.798Z,56.00
2022-07-27T08:43:11.688Z,54.50
2022-07-27T08:45:41.322Z,54.00
2022-07-27T08:48:13.709Z,52.30
2022-07-27T08:50:43.018Z,53.00
2022-07-27T08:53:12.950Z,53.40
2022-07-27T08:55:42.481Z,55.60
2022-07-27T08:58:13.472Z,55.50
2022-07-27T09:00:43.876Z,55.70
2022-07-27T09:03:18.426Z,56.40
2022-07-27T09:05:48.853Z,58.30
2022-07-27T09:08:21.631Z,59.80
2022-07-27T09:10:50.057Z,59.40
2022-07-27T09:13:21.509Z,61.00
2022-07-27T09:18:40.145Z,61.40
2022-07-27T09:21:14.737Z,59.50
2022-07-27T09:23:45.191Z,60.20
2022-07-27T09:26:30.550Z,60.00
2022-07-27T09:29:02.366Z,60.60
2022-07-27T09:31:30.610Z,59.70
2022-07-27T09:34:00.386Z,61.20
2022-07-27T09:36:30.562Z,61.80
2022-07-27T09:39:03.338Z,62.00
2022-07-27T09:41:43.481Z,63.50
2022-07-27T09:47:02.033Z,60.30
2022-07-27T09:49:32.298Z,60.10
2022-07-27T09:52:02.509Z,59.20
2022-07-27T09:54:44.177Z,61.20
2022-07-27T09:57:12.214Z,61.00
2022-07-27T09:59:41.518Z,62.20
2022-07-27T10:02:09.835Z,64.00
2022-07-27T10:04:37.901Z,61.40
2022-07-27T10:07:10.657Z,61.10
2022-07-27T10:09:41.076Z,61.90
2022-07-27T10:12:09.798Z,57.80
2022-07-27T10:14:37.753Z,57.40
2022-07-27T10:17:08.036Z,57.40
2022-07-27T10:19:45.184Z,57.80
2022-07-27T10:22:13.789Z,56.90
2022-07-27T10:24:41.696Z,54.30
2022-07-27T10:27:21.276Z,50.10
2022-07-27T10:29:50.469Z,49.40
2022-07-27T10:32:26.819Z,49.30
2022-07-27T10:35:17.830Z,50.80
2022-07-27T10:38:07.846Z,51.90
2022-07-27T10:40:35.846Z,58.00
2022-07-27T10:43:19.238Z,58.40
2022-07-27T10:46:00.034Z,57.10
2022-07-27T10:48:42.991Z,56.50
2022-07-27T10:51:13.558Z,57.10
2022-07-27T10:54:10.456Z,55.70
2022-07-27T10:56:46.165Z,56.10
2022-07-27T10:59:13.970Z,55.60
2022-07-27T11:01:57.133Z,56.10
2022-07-27T11:04:27.194Z,56.40
2022-07-27T11:07:23.529Z,57.60
2022-07-27T11:10:15.642Z,57.50
2022-07-27T11:12:35.348Z,57.40
2022-07-27T11:15:04.655Z,57.20
2022-07-27T11:17:54.169Z,57.20
2022-07-27T11:20:28.746Z,57.70
2022-07-27T11:23:48.902Z,58.20
2022-07-27T11:26:02.406Z,59.30
2022-07-27T11:28:31.219Z,57.60
2022-07-27T11:30:59.977Z,59.80
2022-07-27T11:33:29.525Z,61.20
2022-07-27T11:36:01.372Z,59.00
2022-07-27T11:38:30.109Z,58.00
2022-07-27T11:41:12.924Z,56.90
2022-07-27T11:43:47.289Z,56.90
2022-07-27T11:46:22.942Z,56.90
2022-07-27T11:49:10.402Z,56.70
2022-07-27T11:51:41.881Z,58.20
2022-07-27T11:54:12.129Z,58.30
2022-07-27T11:56:43.307Z,58.10
2022-07-27T11:59:14.876Z,56.90
2022-07-27T12:01:45.951Z,51.10
2022-07-27T12:04:28.025Z,53.00
2022-07-27T12:07:01.314Z,55.10
2022-07-27T12:09:38.344Z,55.20
2022-07-27T12:12:12.011Z,55.50
2022-07-27T12:14:42.116Z,56.60
2022-07-27T12:17:22.211Z,55.70
2022-07-27T12:19:59.107Z,56.60
2022-07-27T12:22:37.226Z,57.50
2022-07-27T12:25:15.934Z,58.20
2022-07-27T12:27:56.284Z,57.20
2022-07-27T12:30:31.211Z,57.30
2022-07-27T12:32:59.876Z,55.70
2022-07-27T12:35:36.288Z,58.80
2022-07-27T12:38:09.074Z,58.10
2022-07-27T12:40:45.281Z,56.40
2022-07-27T12:43:17.531Z,58.10
2022-07-27T12:45:46.286Z,58.00
2022-07-27T12:48:17.421Z,60.90
2022-07-27T12:50:47.135Z,58.70
2022-07-27T12:53:17.373Z,58.10
2022-07-27T12:55:45.410Z,62.30
2022-07-27T12:58:14.922Z,60.20
2022-07-27T13:00:43.184Z,61.70
2022-07-27T13:03:11.532Z,63.80
2022-07-27T13:05:39.669Z,61.50
2022-07-27T13:08:08.425Z,63.00
2022-07-27T13:10:38.231Z,63.20
2022-07-27T13:13:06.934Z,59.80
2022-07-27T13:15:35.226Z,62.40
2022-07-27T13:18:03.510Z,61.50
2022-07-27T13:20:31.570Z,62.00
2022-07-27T13:22:59.513Z,63.20
2022-07-27T13:25:27.408Z,63.80
2022-07-27T13:27:56.665Z,66.50
2022-07-27T13:30:25.046Z,67.00
2022-07-27T13:32:53.126Z,67.80
2022-07-27T13:35:21.083Z,67.50
2022-07-27T13:37:49.640Z,66.30
2022-07-27T13:40:17.853Z,66.70
2022-07-27T13:42:45.918Z,66.80
2022-07-27T13:45:15.169Z,66.50
2022-07-27T13:47:43.510Z,67.40
2022-07-27T13:50:19.062Z,65.90
2022-07-27T13:52:48.794Z,65.20
2022-07-27T13:55:18.051Z,67.90
2022-07-27T13:57:47.031Z,66.40
2022-07-27T14:00:17.419Z,66.40
2022-07-27T14:02:46.059Z,65.30
2022-07-27T14:05:14.769Z,65.30
2022-07-27T14:07:44.246Z,64.30
2022-07-27T14:10:31.046Z,63.20
2022-07-27T14:13:07.224Z,64.70
2022-07-27T14:15:55.663Z,64.50
2022-07-27T14:18:26.453Z,62.10
2022-07-27T14:20:55.158Z,63.20
2022-07-27T14:23:23.226Z,63.40
2022-07-27T14:25:51.339Z,65.20
2022-07-27T14:28:19.708Z,64.50
2022-07-27T14:30:49.962Z,67.40
2022-07-27T14:33:18.434Z,67.80
2022-07-27T14:35:46.722Z,67.20
2022-07-27T14:38:24.864Z,63.00
2022-07-27T14:40:58.699Z,63.40
2022-07-27T14:43:27.291Z,61.80
2022-07-27T14:45:56.715Z,63.40
2022-07-27T14:48:37.094Z,62.80
2022-07-27T14:51:12.604Z,63.30
2022-07-27T14:53:40.588Z,64.10
2022-07-27T14:56:08.551Z,65.70
2022-07-27T14:58:36.438Z,66.60
2022-07-27T15:01:05.862Z,69.40
2022-07-27T15:03:33.875Z,68.90
2022-07-27T15:06:02.304Z,67.70
2022-07-27T15:08:30.233Z,68.60
2022-07-27T15:10:58.694Z,68.90
2022-07-27T15:13:26.683Z,69.50
2022-07-27T15:15:56.129Z,71.50
2022-07-27T15:18:25.551Z,68.60
2022-07-27T15:20:53.414Z,68.60
2022-07-27T15:23:22.288Z,67.10
2022-07-27T15:25:50.400Z,68.20
2022-07-27T15:28:18.231Z,68.90
2022-07-27T15:30:46.201Z,70.00
2022-07-27T15:33:14.109Z,69.90
2022-07-27T15:35:43.349Z,68.70
2022-07-27T15:38:11.223Z,66.10
2022-07-27T15:40:41.274Z,68.80
2022-07-27T15:43:11.690Z,67.70
2022-07-27T15:45:40.231Z,67.00
2022-07-27T15:48:09.864Z,66.70
2022-07-27T15:50:39.055Z,65.70
2022-07-27T15:53:08.821Z,66.90
2022-07-27T15:55:37.933Z,69.90
2022-07-27T15:58:06.757Z,68.80
2022-07-27T16:00:39.491Z,70.60
2022-07-27T16:03:09.739Z,72.10
2022-07-27T16:05:37.835Z,72.40
2022-07-27T16:08:07.496Z,70.30
2022-07-27T16:10:36.753Z,71.80
2022-07-27T16:13:05.471Z,72.70
2022-07-27T16:15:51.548Z,71.10
2022-07-27T16:18:19.840Z,69.60
2022-07-27T16:20:47.751Z,70.30
2022-07-27T16:23:19.150Z,71.50
2022-07-27T16:26:10.021Z,71.40
2022-07-27T16:28:39.839Z,70.50
2022-07-27T16:31:10.202Z,70.50
2022-07-27T16:33:38.734Z,71.90
2022-07-27T16:36:08.460Z,71.10
2022-07-27T16:38:36.731Z,70.70
2022-07-27T16:41:07.508Z,71.60
2022-07-27T16:43:38.260Z,70.50
2022-07-27T16:46:08.618Z,72.30
2022-07-27T16:48:42.395Z,72.00
2022-07-27T16:51:12.786Z,72.80
2022-07-27T16:53:42.184Z,73.60
2022-07-27T16:56:11.709Z,73.20
2022-07-27T16:58:40.170Z,75.10
2022-07-27T17:01:08.666Z,73.20
2022-07-27T17:03:36.668Z,73.50
2022-07-27T17:06:07.188Z,73.20
2022-07-27T17:08:36.247Z,71.00
2022-07-27T17:11:06.162Z,71.20
2022-07-27T17:13:36.247Z,71.60
2022-07-27T17:16:04.834Z,72.50
2022-07-27T17:18:39.428Z,70.80
2022-07-27T17:21:09.513Z,69.30
2022-07-27T17:23:38.757Z,70.00
2022-07-27T17:26:08.289Z,70.40
2022-07-27T17:28:39.476Z,70.50
2022-07-27T17:31:10.283Z,71.20
2022-07-27T17:33:38.937Z,71.90
2022-07-27T17:36:14.008Z,71.50
2022-07-27T17:38:43.009Z,70.40
2022-07-27T17:41:10.920Z,70.20
2022-07-27T17:43:40.291Z,71.50
2022-07-27T17:46:09.239Z,72.60
2022-07-27T17:48:38.053Z,71.50
2022-07-27T17:51:07.662Z,71.50
2022-07-27T17:53:35.781Z,72.10
2022-07-27T17:56:04.668Z,71.80
2022-07-27T17:58:32.580Z,72.70
2022-07-27T18:01:01.909Z,72.30
2022-07-27T18:03:29.829Z,73.00
2022-07-27T18:05:57.947Z,72.20
2022-07-27T18:08:26.008Z,72.90
2022-07-27T18:10:53.935Z,73.30
2022-07-27T18:13:21.926Z,74.70
2022-07-27T18:15:50.501Z,73.40
2022-07-27T18:18:22.032Z,75.20
2022-07-27T18:20:52.310Z,75.10
2022-07-27T18:23:20.843Z,76.00
2022-07-27T18:25:49.116Z,75.40
2022-07-27T18:28:18.915Z,75.60
2022-07-27T18:30:48.284Z,75.70
2022-07-27T18:33:16.679Z,76.00
2022-07-27T18:35:46.810Z,76.20
2022-07-27T18:38:16.633Z,76.40
2022-07-27T18:40:47.717Z,77.40
2022-07-27T18:43:16.742Z,78.00
2022-07-27T18:45:44.919Z,78.70
2022-07-27T18:48:12.838Z,81.10
2022-07-27T18:50:42.693Z,81.30
2022-07-27T18:53:11.942Z,81.50
2022-07-27T18:55:39.865Z,82.30
2022-07-27T18:58:07.918Z,82.20
2022-07-27T19:00:35.815Z,83.90
2022-07-27T19:03:04.120Z,86.30
2022-07-27T19:05:41.449Z,86.50
2022-07-27T19:08:14.124Z,87.00
2022-07-27T19:10:42.887Z,87.90
2022-07-27T19:13:11.093Z,90.40
2022-07-27T19:15:39.626Z,91.60
2022-07-27T19:18:08.318Z,91.40
2022-07-27T19:20:37.632Z,91.20
2022-07-27T19:23:05.696Z,91.90
2022-07-27T19:25:34.955Z,92.60
2022-07-27T19:28:03.844Z,93.00
2022-07-27T19:30:32.135Z,93.30
2022-07-27T19:33:00.275Z,94.30
2022-07-27T19:35:28.347Z,94.70
2022-07-27T19:37:56.274Z,93.60
2022-07-27T19:43:13.975Z,93.40
2022-07-27T19:45:42.716Z,94.00
2022-07-27T19:48:10.888Z,94.60
2022-07-27T19:50:39.956Z,94.90
2022-07-27T19:53:08.058Z,95.20
2022-07-27T19:55:35.946Z,95.50
2022-07-27T19:58:03.895Z,95.80
2022-07-27T20:00:34.667Z,96.10
2022-07-27T20:03:03.135Z,96.40
2022-07-27T20:05:31.518Z,96.90
2022-07-27T20:07:59.457Z,97.70
2022-07-27T20:10:27.385Z,98.10
2022-07-27T20:12:55.339Z,98.90
2022-07-27T20:15:23.326Z,99.50
2022-07-27T20:17:52.598Z,99.90
2022-07-27T20:20:20.722Z,99.90
2022-07-27T20:22:48.738Z,99.90
2022-07-27T20:25:18.376Z,99.90
2022-07-27T20:27:46.905Z,99.90
2022-07-27T20:30:17.229Z,99.90
2022-07-27T20:32:45.917Z,99.90
2022-07-27T20:35:15.419Z,99.90
2022-07-27T20:37:43.955Z,99.90
2022-07-27T20:40:12.715Z,99.90
2022-07-27T20:42:41.282Z,99.90
2022-07-27T20:45:11.375Z,99.90
2022-07-27T20:47:39.538Z,99.90
2022-07-27T20:50:09.219Z,99.90
2022-07-27T20:52:39.127Z,99.90
2022-07-27T20:55:08.621Z,99.90
2022-07-27T20:57:36.881Z,99.90
2022-07-27T21:00:07.497Z,99.90
2022-07-27T21:02:36.175Z,99.90
2022-07-27T21:05:04.386Z,99.90
2022-07-27T21:07:32.294Z,99.90
2022-07-27T21:10:01.577Z,99.90
2022-07-27T21:12:29.482Z,99.90
2022-07-27T21:14:58.185Z,99.90
2022-07-27T21:17:26.330Z,99.90
2022-07-27T21:19:54.343Z,99.90
2022-07-27T21:22:22.260Z,99.90
2022-07-27T21:24:49.679Z,99.90
2022-07-27T21:27:21.270Z,99.90
2022-07-27T21:29:49.898Z,99.90
2022-07-27T21:32:18.163Z,99.90
2022-07-27T21:34:46.414Z,99.90
2022-07-27T21:37:14.377Z,99.90
2022-07-27T21:39:42.291Z,99.90
2022-07-27T21:42:10.177Z,99.90
2022-07-27T21:44:39.532Z,99.90
2022-07-27T21:47:11.563Z,99.90
2022-07-27T21:49:41.989Z,99.90
2022-07-27T21:52:11.106Z,99.90
2022-07-27T21:54:39.277Z,99.90
2022-07-27T21:57:07.197Z,99.90
2022-07-27T21:59:35.117Z,99.90
2022-07-27T22:02:04.541Z,99.90
2022-07-27T22:04:32.554Z,99.90
2022-07-27T22:07:00.599Z,99.90
2022-07-27T22:09:28.605Z,99.90
2022-07-27T22:11:56.695Z,99.90
2022-07-27T22:14:25.009Z,99.90
2022-07-27T22:16:53.940Z,99.90
2022-07-27T22:19:23.376Z,99.90
2022-07-27T22:21:51.283Z,99.90
2022-07-27T22:24:19.194Z,99.90
2022-07-27T22:26:47.221Z,99.90
2022-07-27T22:29:15.078Z,99.90
2022-07-27T22:31:43.110Z,99.90
2022-07-27T22:34:11.472Z,99.90
2022-07-27T22:36:40.948Z,99.90
2022-07-27T22:39:08.920Z,99.90
2022-07-27T22:41:36.829Z,99.90
2022-07-27T22:44:04.901Z,99.90
2022-07-27T22:46:33.084Z,99.90
2022-07-27T22:49:01.086Z,99.90
2022-07-27T22:51:49.635Z,99.90
2022-07-27T22:54:18.741Z,99.90
2022-07-27T22:56:47.248Z,99.90
2022-07-27T22:59:15.168Z,99.90
2022-07-27T23:01:47.206Z,99.90
2022-07-27T23:04:17.169Z,99.90
2022-07-27T23:06:45.746Z,99.90
2022-07-27T23:09:14.018Z,99.90
2022-07-27T23:11:44.025Z,99.90
2022-07-27T23:14:13.457Z,99.90
2022-07-27T23:16:41.827Z,99.90
2022-07-27T23:19:10.046Z,99.90
2022-07-27T23:21:39.528Z,99.90
2022-07-27T23:24:10.951Z,99.90
2022-07-27T23:26:39.367Z,99.90
2022-07-27T23:29:08.636Z,99.90
2022-07-27T23:31:36.768Z,99.90
2022-07-27T23:34:04.750Z,99.90
2022-07-27T23:36:32.675Z,99.90
2022-07-27T23:39:00.575Z,99.90
2022-07-27T23:41:28.663Z,99.90
2022-07-27T23:43:56.598Z,99.90
2022-07-27T23:46:25.876Z,99.90
2022-07-27T23:48:53.897Z,99.90
2022-07-27T23:51:22.204Z,99.90
2022-07-27T23:53:50.440Z,99.90
2022-07-27T23:56:18.363Z,99.90
2022-07-27T23:58:46.228Z,99.90
